Time,TemperatureF,DewpointF,PressureIn,WindDirection,WindDirectionDegrees,WindSpeedMPH,WindSpeedGustMPH,Humidity,HourlyPrecipIn,Conditions,Clouds,dailyrainin,SoftwareType,DateUTC
2013-03-08 00:02:00,37.0,26.0,30.11,NW,318,11.0,21.0,65,0.00,,,0.00,,2013-03-08 05:02:00,
2013-03-08 00:12:00,37.0,26.0,30.11,NW,318,11.0,21.0,65,0.00,,,0.00,,2013-03-08 05:12:00,
2013-03-08 00:22:00,36.0,25.0,30.11,NW,321,6.0,16.0,64,0.00,,,0.00,,2013-03-08 05:22:00,
2013-03-08 00:32:00,36.0,25.0,30.11,NW,317,7.0,17.0,64,0.00,,,0.00,,2013-03-08 05:32:00,
2013-03-08 00:42:00,36.0,25.0,30.11,NW,317,7.0,17.0,64,0.00,,,0.00,,2013-03-08 05:42:00,
2013-03-08 00:52:00,35.0,24.0,30.12,NW,318,7.0,18.0,65,0.00,,,0.00,,2013-03-08 05:52:00,
2013-03-08 01:01:00,35.0,24.0,30.12,NW,319,14.0,19.0,65,0.00,,,0.00,,2013-03-08 06:01:00,
2013-03-08 01:11:00,35.0,24.0,30.12,NW,319,14.0,19.0,65,0.00,,,0.00,,2013-03-08 06:11:00,
2013-03-08 01:22:00,35.0,24.0,30.13,NW,321,8.0,17.0,65,0.00,,,0.00,,2013-03-08 06:22:00,
2013-03-08 01:32:00,35.0,24.0,30.13,NW,316,8.0,15.0,65,0.00,,,0.00,,2013-03-08 06:32:00,
2013-03-08 01:42:00,35.0,24.0,30.13,NW,316,8.0,15.0,65,0.00,,,0.00,,2013-03-08 06:42:00,
2013-03-08 01:52:00,34.0,23.0,30.13,NW,318,13.0,23.0,63,0.00,,,0.00,,2013-03-08 06:52:00,
2013-03-08 02:01:00,34.0,23.0,30.13,NW,317,7.0,18.0,63,0.00,,,0.00,,2013-03-08 07:01:00,
2013-03-08 02:11:00,34.0,23.0,30.13,NW,317,7.0,18.0,63,0.00,,,0.00,,2013-03-08 07:11:00,
2013-03-08 02:22:00,34.0,23.0,30.12,NW,319,10.0,23.0,64,0.00,,,0.00,,2013-03-08 07:22:00,
2013-03-08 02:32:00,34.0,23.0,30.13,NW,317,7.0,15.0,65,0.00,,,0.00,,2013-03-08 07:32:00,
2013-03-08 02:42:00,34.0,23.0,30.13,NW,317,7.0,15.0,65,0.00,,,0.00,,2013-03-08 07:42:00,
2013-03-08 02:52:00,33.0,23.0,30.12,NW,314,8.0,16.0,67,0.00,,,0.00,,2013-03-08 07:52:00,
2013-03-08 03:01:00,33.0,23.0,30.12,NW,321,13.0,18.0,67,0.00,,,0.00,,2013-03-08 08:01:00,
2013-03-08 03:11:00,33.0,23.0,30.12,NW,321,13.0,18.0,67,0.00,,,0.00,,2013-03-08 08:11:00,
2013-03-08 03:22:00,32.0,22.0,30.11,NW,320,6.0,17.0,67,0.00,,,0.00,,2013-03-08 08:22:00,
2013-03-08 03:32:00,32.0,23.0,30.11,NW,314,8.0,20.0,68,0.00,,,0.00,,2013-03-08 08:32:00,
2013-03-08 03:42:00,32.0,23.0,30.11,NW,314,8.0,20.0,68,0.00,,,0.00,,2013-03-08 08:42:00,
2013-03-08 03:52:00,32.0,23.0,30.11,NW,315,10.0,19.0,68,0.00,,,0.00,,2013-03-08 08:52:00,
2013-03-08 04:03:00,32.0,23.0,30.10,NW,314,11.0,16.0,68,0.00,,,0.00,,2013-03-08 09:03:00,
2013-03-08 04:11:00,32.0,23.0,30.10,NW,314,11.0,16.0,68,0.00,,,0.00,,2013-03-08 09:11:00,
2013-03-08 04:21:00,32.0,23.0,30.11,NW,318,14.0,22.0,69,0.00,,,0.00,,2013-03-08 09:21:00,
2013-03-08 04:32:00,32.0,23.0,30.11,NW,321,8.0,18.0,69,0.00,,,0.00,,2013-03-08 09:32:00,
2013-03-08 04:42:00,32.0,23.0,30.11,NW,321,8.0,18.0,69,0.00,,,0.00,,2013-03-08 09:42:00,
2013-03-08 04:52:00,31.0,22.0,30.11,NW,317,9.0,17.0,69,0.00,,,0.00,,2013-03-08 09:52:00,
2013-03-08 05:01:00,31.0,22.0,30.11,NW,316,7.0,19.0,70,0.00,,,0.00,,2013-03-08 10:01:00,
2013-03-08 05:11:00,31.0,22.0,30.11,NW,316,7.0,19.0,70,0.00,,,0.00,,2013-03-08 10:11:00,
2013-03-08 05:21:00,31.0,22.0,30.11,NW,318,6.0,20.0,70,0.00,,,0.00,,2013-03-08 10:21:00,
2013-03-08 05:32:00,31.0,22.0,30.11,NW,318,14.0,22.0,70,0.00,,,0.00,,2013-03-08 10:32:00,
2013-03-08 05:42:00,31.0,22.0,30.11,NW,318,14.0,22.0,70,0.00,,,0.00,,2013-03-08 10:42:00,
2013-03-08 05:52:00,32.0,23.0,30.11,NW,319,7.0,17.0,70,0.00,,,0.00,,2013-03-08 10:52:00,
2013-03-08 06:01:00,32.0,23.0,30.11,NW,318,9.0,20.0,70,0.00,,,0.00,,2013-03-08 11:01:00,
2013-03-08 06:11:00,32.0,23.0,30.11,NW,318,9.0,20.0,70,0.00,,,0.00,,2013-03-08 11:11:00,
2013-03-08 06:21:00,32.0,23.0,30.11,NW,313,11.0,20.0,70,0.00,,,0.00,,2013-03-08 11:21:00,
2013-03-08 06:32:00,32.0,23.0,30.11,NW,321,13.0,21.0,70,0.00,,,0.00,,2013-03-08 11:32:00,
2013-03-08 06:42:00,32.0,23.0,30.11,NW,321,13.0,21.0,70,0.00,,,0.00,,2013-03-08 11:42:00,
2013-03-08 06:52:00,32.0,23.0,30.12,NW,323,11.0,19.0,70,0.00,,,0.00,,2013-03-08 11:52:00,
2013-03-08 07:02:00,32.0,23.0,30.12,NW,323,14.0,26.0,70,0.00,,,0.00,,2013-03-08 12:02:00,
2013-03-08 07:11:00,32.0,23.0,30.12,NW,323,14.0,26.0,70,0.00,,,0.00,,2013-03-08 12:11:00,
2013-03-08 07:22:00,32.0,24.0,30.12,NW,317,12.0,22.0,72,0.00,,,0.00,,2013-03-08 12:22:00,
2013-03-08 07:32:00,32.0,24.0,30.12,NW,321,9.0,22.0,73,0.00,,,0.00,,2013-03-08 12:32:00,
2013-03-08 07:43:00,32.0,24.0,30.12,NW,321,9.0,22.0,73,0.00,,,0.00,,2013-03-08 12:43:00,
2013-03-08 07:53:00,31.0,24.0,30.13,NW,315,10.0,21.0,75,0.00,,,0.00,,2013-03-08 12:53:00,
2013-03-08 08:01:00,31.0,24.0,30.13,NW,316,16.0,27.0,76,0.00,,,0.00,,2013-03-08 13:01:00,
2013-03-08 08:11:00,31.0,24.0,30.13,NW,316,16.0,27.0,76,0.00,,,0.00,,2013-03-08 13:11:00,
2013-03-08 08:22:00,31.0,25.0,30.13,NW,311,13.0,26.0,78,0.00,,,0.00,,2013-03-08 13:22:00,
2013-03-08 08:32:00,31.0,26.0,30.14,NW,322,15.0,23.0,80,0.00,,,0.00,,2013-03-08 13:32:00,
2013-03-08 08:42:00,31.0,26.0,30.14,NW,322,15.0,23.0,80,0.00,,,0.00,,2013-03-08 13:42:00,
2013-03-08 08:52:00,30.0,26.0,30.13,NW,317,10.0,25.0,84,0.00,,,0.00,,2013-03-08 13:52:00,
2013-03-08 09:02:00,30.0,26.0,30.13,NW,315,13.0,22.0,86,0.00,,,0.00,,2013-03-08 14:02:00,
2013-03-08 09:11:00,30.0,26.0,30.13,NW,315,13.0,22.0,86,0.00,,,0.00,,2013-03-08 14:11:00,
2013-03-08 09:22:00,31.0,27.0,30.13,NW,314,10.0,22.0,84,0.00,,,0.00,,2013-03-08 14:22:00,
2013-03-08 09:32:00,32.0,27.0,30.13,NW,314,14.0,26.0,80,0.00,,,0.00,,2013-03-08 14:32:00,
2013-03-08 09:42:00,32.0,27.0,30.13,NW,314,14.0,26.0,80,0.00,,,0.00,,2013-03-08 14:42:00,
2013-03-08 09:53:00,33.0,26.0,30.13,NW,322,14.0,29.0,75,0.00,,,0.00,,2013-03-08 14:53:00,
2013-03-08 10:03:00,33.0,25.0,30.13,NW,320,13.0,29.0,73,0.00,,,0.00,,2013-03-08 15:03:00,
2013-03-08 10:12:00,34.0,26.0,30.13,NW,321,19.0,30.0,72,0.00,,,0.00,,2013-03-08 15:12:00,
2013-03-08 10:22:00,34.0,26.0,30.13,NW,321,19.0,30.0,72,0.00,,,0.00,,2013-03-08 15:22:00,
2013-03-08 10:32:00,34.0,26.0,30.12,NW,317,17.0,33.0,72,0.00,,,0.00,,2013-03-08 15:32:00,
2013-03-08 10:42:00,34.0,26.0,30.12,NW,317,17.0,33.0,72,0.00,,,0.00,,2013-03-08 15:42:00,
2013-03-08 10:53:00,35.0,26.0,30.13,NW,315,17.0,30.0,69,0.00,,,0.00,,2013-03-08 15:53:00,
2013-03-08 11:01:00,36.0,26.0,30.13,NW,317,18.0,30.0,68,0.00,,,0.00,,2013-03-08 16:01:00,
2013-03-08 11:11:00,36.0,26.0,30.13,NW,317,18.0,30.0,68,0.00,,,0.00,,2013-03-08 16:11:00,
2013-03-08 11:22:00,36.0,26.0,30.14,NW,315,9.0,24.0,67,0.00,,,0.00,,2013-03-08 16:22:00,
2013-03-08 11:32:00,36.0,26.0,30.14,NW,325,9.0,27.0,67,0.00,,,0.00,,2013-03-08 16:32:00,
2013-03-08 11:42:00,36.0,26.0,30.14,NW,325,9.0,27.0,67,0.00,,,0.00,,2013-03-08 16:42:00,
2013-03-08 11:52:00,37.0,26.0,30.13,NW,320,13.0,29.0,65,0.00,,,0.00,,2013-03-08 16:52:00,
2013-03-08 12:03:00,38.0,27.0,30.13,NW,317,19.0,33.0,64,0.00,,,0.00,,2013-03-08 17:03:00,
2013-03-08 12:11:00,38.0,27.0,30.13,NW,317,19.0,33.0,64,0.00,,,0.00,,2013-03-08 17:11:00,
2013-03-08 12:21:00,39.0,28.0,30.14,NW,316,14.0,22.0,65,0.00,,,0.00,,2013-03-08 17:21:00,
2013-03-08 12:32:00,38.0,27.0,30.14,NNW,327,16.0,23.0,64,0.00,,,0.00,,2013-03-08 17:32:00,
2013-03-08 12:42:00,38.0,27.0,30.14,NNW,327,16.0,23.0,64,0.00,,,0.00,,2013-03-08 17:42:00,
2013-03-08 12:52:00,39.0,28.0,30.13,NW,315,11.0,28.0,64,0.00,,,0.00,,2013-03-08 17:52:00,
2013-03-08 13:02:00,39.0,27.0,30.13,NW,318,13.0,28.0,63,0.00,,,0.00,,2013-03-08 18:02:00,
2013-03-08 13:11:00,39.0,27.0,30.13,NW,318,13.0,28.0,63,0.00,,,0.00,,2013-03-08 18:11:00,
2013-03-08 13:22:00,39.0,28.0,30.12,NW,314,15.0,31.0,65,0.00,,,0.00,,2013-03-08 18:22:00,
2013-03-08 13:32:00,39.0,28.0,30.12,NW,324,11.0,28.0,64,0.00,,,0.00,,2013-03-08 18:32:00,
2013-03-08 13:42:00,39.0,28.0,30.12,NW,324,11.0,28.0,64,0.00,,,0.00,,2013-03-08 18:42:00,
2013-03-08 13:52:00,40.0,29.0,30.12,NW,317,13.0,24.0,65,0.00,,,0.00,,2013-03-08 18:52:00,
2013-03-08 14:01:00,40.0,29.0,30.12,NW,314,14.0,28.0,65,0.00,,,0.00,,2013-03-08 19:01:00,
2013-03-08 14:11:00,40.0,29.0,30.12,NW,314,14.0,28.0,65,0.00,,,0.00,,2013-03-08 19:11:00,
2013-03-08 14:22:00,40.0,29.0,30.11,NW,313,11.0,20.0,65,0.00,,,0.00,,2013-03-08 19:22:00,
2013-03-08 14:32:00,41.0,30.0,30.11,NW,320,10.0,23.0,65,0.00,,,0.00,,2013-03-08 19:32:00,
2013-03-08 14:42:00,41.0,30.0,30.11,NW,320,10.0,23.0,65,0.00,,,0.00,,2013-03-08 19:42:00,
2013-03-08 14:52:00,41.0,30.0,30.12,NW,324,12.0,21.0,64,0.00,,,0.00,,2013-03-08 19:52:00,
2013-03-08 15:01:00,41.0,30.0,30.12,NW,320,9.0,24.0,64,0.00,,,0.00,,2013-03-08 20:01:00,
2013-03-08 15:11:00,41.0,30.0,30.12,NW,320,9.0,24.0,64,0.00,,,0.00,,2013-03-08 20:11:00,
2013-03-08 15:22:00,42.0,31.0,30.12,NW,321,9.0,25.0,64,0.00,,,0.00,,2013-03-08 20:22:00,
2013-03-08 15:32:00,42.0,31.0,30.13,NW,318,9.0,19.0,64,0.00,,,0.00,,2013-03-08 20:32:00,
2013-03-08 15:42:00,42.0,31.0,30.13,NW,318,9.0,19.0,64,0.00,,,0.00,,2013-03-08 20:42:00,
2013-03-08 15:53:00,42.0,30.0,30.13,NW,325,13.0,26.0,63,0.00,,,0.00,,2013-03-08 20:53:00,
2013-03-08 16:02:00,42.0,31.0,30.14,NW,324,13.0,20.0,64,0.00,,,0.00,,2013-03-08 21:02:00,
2013-03-08 16:11:00,42.0,31.0,30.14,NW,324,13.0,20.0,64,0.00,,,0.00,,2013-03-08 21:11:00,
2013-03-08 16:22:00,42.0,30.0,30.14,NW,318,11.0,21.0,63,0.00,,,0.00,,2013-03-08 21:22:00,
2013-03-08 16:32:00,42.0,30.0,30.14,NW,321,13.0,24.0,63,0.00,,,0.00,,2013-03-08 21:32:00,
2013-03-08 16:42:00,42.0,30.0,30.14,NW,321,13.0,24.0,63,0.00,,,0.00,,2013-03-08 21:42:00,
2013-03-08 16:52:00,42.0,30.0,30.14,NW,317,12.0,24.0,63,0.00,,,0.00,,2013-03-08 21:52:00,
2013-03-08 17:01:00,42.0,30.0,30.15,NW,326,10.0,22.0,63,0.00,,,0.00,,2013-03-08 22:01:00,
2013-03-08 17:11:00,42.0,30.0,30.15,NW,326,10.0,22.0,63,0.00,,,0.00,,2013-03-08 22:11:00,
2013-03-08 17:22:00,42.0,31.0,30.16,NW,319,11.0,21.0,64,0.00,,,0.00,,2013-03-08 22:22:00,
2013-03-08 17:32:00,42.0,30.0,30.17,NW,321,11.0,21.0,63,0.00,,,0.00,,2013-03-08 22:32:00,
2013-03-08 17:42:00,42.0,30.0,30.17,NW,321,11.0,21.0,63,0.00,,,0.00,,2013-03-08 22:42:00,
2013-03-08 17:53:00,42.0,30.0,30.18,NW,321,13.0,21.0,63,0.00,,,0.00,,2013-03-08 22:53:00,
2013-03-08 18:02:00,42.0,30.0,30.18,NNW,327,11.0,23.0,63,0.00,,,0.00,,2013-03-08 23:02:00,
2013-03-08 18:12:00,42.0,30.0,30.18,NNW,327,11.0,23.0,63,0.00,,,0.00,,2013-03-08 23:12:00,
2013-03-08 18:22:00,42.0,30.0,30.18,NNW,327,12.0,26.0,63,0.00,,,0.00,,2013-03-08 23:22:00,
2013-03-08 18:32:00,42.0,30.0,30.18,NW,322,14.0,24.0,62,0.00,,,0.00,,2013-03-08 23:32:00,
2013-03-08 18:42:00,42.0,30.0,30.18,NW,322,14.0,24.0,62,0.00,,,0.00,,2013-03-08 23:42:00,
2013-03-08 18:53:00,42.0,30.0,30.19,NW,324,14.0,23.0,62,0.00,,,0.00,,2013-03-08 23:53:00,
2013-03-08 19:02:00,42.0,30.0,30.20,NW,326,14.0,22.0,63,0.00,,,0.00,,2013-03-09 00:02:00,
2013-03-08 19:12:00,42.0,30.0,30.20,NW,326,14.0,22.0,63,0.00,,,0.00,,2013-03-09 00:12:00,
2013-03-08 19:22:00,41.0,29.0,30.21,NW,319,5.0,15.0,63,0.00,,,0.00,,2013-03-09 00:22:00,
2013-03-08 19:32:00,41.0,29.0,30.21,NW,317,9.0,18.0,63,0.00,,,0.00,,2013-03-09 00:32:00,
2013-03-08 19:42:00,41.0,29.0,30.21,NW,317,9.0,18.0,63,0.00,,,0.00,,2013-03-09 00:42:00,
2013-03-08 19:52:00,41.0,30.0,30.22,NW,318,7.0,14.0,64,0.00,,,0.00,,2013-03-09 00:52:00,
2013-03-08 20:01:00,41.0,30.0,30.22,NW,314,7.0,16.0,64,0.00,,,0.00,,2013-03-09 01:01:00,
2013-03-08 20:12:00,40.0,28.0,30.23,NW,314,8.0,17.0,63,0.00,,,0.00,,2013-03-09 01:12:00,
2013-03-08 20:22:00,40.0,28.0,30.23,NW,314,8.0,17.0,63,0.00,,,0.00,,2013-03-09 01:22:00,
2013-03-08 20:32:00,40.0,28.0,30.23,NW,324,8.0,17.0,63,0.00,,,0.00,,2013-03-09 01:32:00,
2013-03-08 20:42:00,40.0,28.0,30.23,NW,324,8.0,17.0,63,0.00,,,0.00,,2013-03-09 01:42:00,
2013-03-08 20:52:00,40.0,28.0,30.23,NW,324,13.0,20.0,63,0.00,,,0.00,,2013-03-09 01:52:00,
2013-03-08 21:01:00,39.0,27.0,30.24,NW,319,8.0,17.0,63,0.00,,,0.00,,2013-03-09 02:01:00,
2013-03-08 21:11:00,39.0,27.0,30.24,NW,319,8.0,17.0,63,0.00,,,0.00,,2013-03-09 02:11:00,
2013-03-08 21:21:00,39.0,27.0,30.25,NW,316,9.0,23.0,63,0.00,,,0.00,,2013-03-09 02:21:00,
2013-03-08 21:31:00,39.0,27.0,30.25,NW,321,11.0,18.0,63,0.00,,,0.00,,2013-03-09 02:31:00,
2013-03-08 21:41:00,39.0,27.0,30.26,NW,320,10.0,21.0,62,0.00,,,0.00,,2013-03-09 02:41:00,
2013-03-08 21:51:00,39.0,27.0,30.26,NW,320,10.0,21.0,62,0.00,,,0.00,,2013-03-09 02:51:00,
2013-03-08 22:01:00,39.0,27.0,30.26,NW,325,9.0,18.0,62,0.00,,,0.00,,2013-03-09 03:01:00,
2013-03-08 22:11:00,39.0,27.0,30.26,NW,325,9.0,18.0,62,0.00,,,0.00,,2013-03-09 03:11:00,
2013-03-08 22:21:00,38.0,26.0,30.27,NW,321,6.0,16.0,62,0.00,,,0.00,,2013-03-09 03:21:00,
2013-03-08 22:31:00,38.0,26.0,30.27,NW,320,5.0,17.0,62,0.00,,,0.00,,2013-03-09 03:31:00,
2013-03-08 22:41:00,38.0,26.0,30.27,NW,320,5.0,17.0,62,0.00,,,0.00,,2013-03-09 03:41:00,
2013-03-08 22:52:00,38.0,26.0,30.27,NW,319,8.0,18.0,62,0.00,,,0.00,,2013-03-09 03:52:00,
2013-03-08 23:01:00,38.0,27.0,30.27,NW,322,4.0,11.0,63,0.00,,,0.00,,2013-03-09 04:01:00,
2013-03-08 23:11:00,38.0,27.0,30.27,NW,322,4.0,11.0,63,0.00,,,0.00,,2013-03-09 04:11:00,
2013-03-08 23:22:00,37.0,26.0,30.27,NW,316,7.0,13.0,63,0.00,,,0.00,,2013-03-09 04:22:00,
2013-03-08 23:32:00,37.0,26.0,30.27,NNW,328,4.0,13.0,64,0.00,,,0.00,,2013-03-09 04:32:00,
2013-03-08 23:42:00,37.0,26.0,30.27,NNW,328,4.0,13.0,64,0.00,,,0.00,,2013-03-09 04:42:00,
2013-03-08 23:52:00,37.0,26.0,30.27,NNW,334,3.0,9.0,65,0.00,,,0.00,,2013-03-09 04:52:00,